Time;durP1;ratioP1;P1;durP2;ratioP2;P2;SDS_P1;SDS_P2;PMS_P1;PMS_P2;Temp;Humidity;BMP_temperature;BMP_pressure;BME280_temperature;BME280_humidity;BME280_pressure;Samples;Min_cycle;Max_cycle;Signal;HPM_P1;HPM_P2
2021/06/21 00:01:10;;;;;;;6.60;6.10;;;;;;;23.18;60.98;94133.74;834700;71;29648;-78
2021/06/21 00:16:15;;;;;;;6.40;5.80;;;;;;;23.17;60.64;94130.09;833955;71;32673;-77
2021/06/21 00:31:15;;;;;;;5.93;5.43;;;;;;;23.07;60.42;94103.48;827448;71;33105;-79
2021/06/21 00:46:15;;;;;;;5.47;4.97;;;;;;;23.01;60.19;94090.23;834117;71;32632;-78
2021/06/21 01:01:09;;;;;;;5.43;5.03;;;;;;;23.02;59.95;94100.42;828299;71;30242;-78
2021/06/21 01:16:33;;;;;;;6.40;5.90;;;;;;;22.69;60.83;94102.13;827600;71;32638;-77
2021/06/21 01:31:17;;;;;;;7.00;6.40;;;;;;;22.75;60.50;94102.77;830208;71;29754;-79
2021/06/21 01:46:15;;;;;;;7.73;5.90;;;;;;;22.80;60.33;94109.66;828500;71;30346;-77
2021/06/21 02:01:17;;;;;;;6.00;5.50;;;;;;;22.75;60.21;94113.47;827955;71;33109;-78
2021/06/21 02:16:15;;;;;;;5.50;5.10;;;;;;;22.67;60.17;94113.23;823636;71;32705;-76
2021/06/21 02:31:09;;;;;;;6.30;5.50;;;;;;;22.72;59.73;94116.11;834186;71;29725;-80
2021/06/21 02:46:13;;;;;;;5.50;5.10;;;;;;;22.69;59.63;94116.84;834083;71;31999;-78
2021/06/21 03:16:15;;;;;;;5.63;5.13;;;;;;;22.66;59.54;94090.28;827694;71;33098;-78
2021/06/21 03:31:14;;;;;;;6.03;5.60;;;;;;;22.59;59.77;94102.30;834052;71;32692;-76
2021/06/21 03:46:14;;;;;;;5.63;5.23;;;;;;;22.32;59.13;94095.84;828584;71;32857;-76
2021/06/21 04:01:16;;;;;;;6.67;5.47;;;;;;;22.69;58.80;94112.28;834934;71;32700;-78
2021/06/21 04:16:08;;;;;;;5.90;5.30;;;;;;;23.19;59.27;94117.89;834229;71;29674;-75
2021/06/21 04:31:09;;;;;;;14.27;6.83;;;;;;;23.57;60.87;94109.56;834121;71;30381;-77
2021/06/21 04:46:15;;;;;;;10.20;8.00;;;;;;;22.72;60.92;94118.21;827454;71;33335;-77
2021/06/21 05:01:16;;;;;;;9.53;8.50;;;;;;;22.04;64.52;94141.80;829089;71;32775;-76
2021/06/21 05:16:16;;;;;;;8.60;7.80;;;;;;;22.45;63.81;94144.42;828372;71;32740;-78
2021/06/21 05:31:10;;;;;;;11.73;8.53;;;;;;;22.48;64.06;94161.63;828430;71;29696;-78
2021/06/21 05:46:29;;;;;;;9.83;8.83;;;;;;;23.73;61.91;94157.43;828537;71;32861;-79
2021/06/21 06:01:10;;;;;;;10.57;9.37;;;;;;;23.07;62.80;94160.27;829103;71;30360;-82
2021/06/21 06:16:19;;;;;;;12.20;9.70;;;;;;;23.65;61.28;94146.51;827504;71;32768;-79
2021/06/21 06:31:14;;;;;;;12.70;11.40;;;;;;;24.10;59.87;94151.75;827723;71;33241;-78
2021/06/21 06:46:09;;;;;;;16.70;10.80;;;;;;;24.04;59.78;94148.50;828357;71;30213;-76
2021/06/21 07:01:09;;;;;;;13.53;11.60;;;;;;;24.14;59.76;94146.39;834293;71;30322;-76
2021/06/21 07:16:09;;;;;;;13.23;11.83;;;;;;;24.85;58.19;94142.13;826819;71;29746;-76
2021/06/21 07:31:27;;;;;;;12.57;11.30;;;;;;;25.99;55.67;94144.88;827166;71;33225;-79
2021/06/21 07:46:13;;;;;;;11.90;10.80;;;;;;;;;;827355;71;33214;-81
2021/06/21 08:01:12;;;;;;;10.17;9.17;;;;;;;28.12;52.41;94150.88;814242;70;30230;-75
2021/06/21 08:16:08;;;;;;;8.63;7.73;;;;;;;28.84;49.60;94138.92;833985;71;29733;-78
2021/06/21 08:31:28;;;;;;;8.70;7.90;;;;;;;29.46;47.65;94129.23;833858;71;32733;-76
2021/06/21 08:46:10;;;;;;;6.60;6.10;;;;;;;30.52;45.71;94124.52;833964;71;30753;-77
2021/06/21 09:47:14;;;;;;;5.17;4.80;;;;;;;33.17;37.38;94127.28;823468;71;29488;-79
2021/06/21 10:01:14;;;;;;;5.10;4.70;;;;;;;33.39;36.75;94106.86;824043;70;32860;-78
2021/06/21 10:16:09;;;;;;;5.50;5.13;;;;;;;33.17;35.96;94115.04;834582;71;29250;-78
2021/06/21 10:31:16;;;;;;;4.87;4.57;;;;;;;32.25;36.70;94109.57;834507;71;32750;-76
2021/06/21 10:46:27;;;;;;;4.40;4.10;;;;;;;32.79;35.68;94109.76;829636;71;29480;-76
2021/06/21 11:01:15;;;;;;;4.20;3.90;;;;;;;32.94;35.34;94088.44;829980;71;29552;-80
2021/06/21 11:16:20;;;;;;;5.60;5.20;;;;;;;33.01;35.35;94074.42;829863;71;29248;-80
2021/06/21 11:31:25;;;;;;;4.17;3.87;;;;;;;33.03;34.48;94075.52;828821;71;32732;-82
2021/06/21 11:46:08;;;;;;;4.03;3.73;;;;;;;32.73;34.48;94066.09;830010;71;29796;-79
2021/06/21 12:01:19;;;;;;;3.20;3.00;;;;;;;32.47;33.36;94058.63;828707;71;32702;-77
2021/06/21 12:16:16;;;;;;;3.20;3.00;;;;;;;32.36;33.08;94060.32;835484;71;32644;-81
2021/06/21 12:31:17;;;;;;;2.57;2.47;;;;;;;32.52;32.46;94048.53;834072;71;32669;-77
2021/06/21 12:46:19;;;;;;;3.07;2.70;;;;;;;32.49;33.22;94052.15;828439;71;29727;-76
2021/06/21 13:01:24;;;;;;;4.53;4.23;;;;;;;32.25;32.88;94034.89;828713;71;32832;-79
2021/06/21 13:16:23;;;;;;;4.30;4.00;;;;;;;31.58;33.39;94028.32;827716;71;33711;-78
2021/06/21 13:31:16;;;;;;;3.50;3.30;;;;;;;31.02;34.12;94028.20;834213;71;30275;-77
2021/06/21 13:46:24;;;;;;;5.00;4.60;;;;;;;30.68;35.22;94023.50;828520;71;29781;-77
2021/06/21 14:01:21;;;;;;;3.90;3.70;;;;;;;30.91;35.15;94024.45;827611;71;32683;-80
2021/06/21 14:16:11;;;;;;;3.83;3.63;;;;;;;30.67;35.84;94026.63;828411;71;30255;-77
2021/06/21 14:31:10;;;;;;;3.90;3.60;;;;;;;30.31;36.65;94031.64;828257;71;30738;-80
2021/06/21 14:32:15;;;;;;;4.23;3.90;;;;;;;30.24;36.74;94031.20;808822;73;27043;-78
2021/06/21 14:33:23;;;;;;;4.27;3.97;;;;;;;30.26;36.84;94035.59;808788;73;26955;-80
2021/06/21 14:34:30;;;;;;;4.27;3.97;;;;;;;30.31;36.89;94033.77;808781;73;26962;-80
2021/06/21 14:35:34;;;;;;;4.60;4.30;;;;;;;30.41;36.82;94032.55;808898;73;26960;-84
2021/06/21 14:36:39;;;;;;;4.07;3.87;;;;;;;30.50;36.75;94034.06;808837;73;26944;-82
2021/06/21 14:37:43;;;;;;;4.47;4.17;;;;;;;30.59;36.72;94036.89;808850;73;26985;-81
2021/06/21 14:38:50;;;;;;;4.73;4.13;;;;;;;30.68;36.77;94032.23;808743;73;27020;-80
2021/06/21 14:39:52;;;;;;;4.50;4.20;;;;;;;30.77;36.83;94031.59;808449;72;26922;-81
2021/06/21 14:40:56;;;;;;;3.90;3.70;;;;;;;30.83;36.84;94037.41;808708;73;26923;-80
2021/06/21 14:42:00;;;;;;;4.30;4.10;;;;;;;30.91;36.83;94037.39;808728;73;27508;-80
2021/06/21 14:43:04;;;;;;;4.93;4.53;;;;;;;30.99;36.83;94037.20;808860;73;26951;-80
2021/06/21 14:44:10;;;;;;;4.60;4.20;;;;;;;31.04;36.83;94033.95;808779;73;26958;-81
2021/06/21 14:45:15;;;;;;;4.67;4.37;;;;;;;31.07;36.84;94033.84;808670;73;27042;-83
2021/06/21 14:46:18;;;;;;;5.10;4.70;;;;;;;31.11;36.95;94027.73;808901;73;27393;-84
2021/06/21 14:47:23;;;;;;;4.40;4.10;;;;;;;31.14;37.02;94035.58;808960;73;26950;-85
2021/06/21 14:48:26;;;;;;;4.40;4.10;;;;;;;31.16;37.02;94033.20;808942;73;27403;-84
2021/06/21 14:49:31;;;;;;;4.37;4.07;;;;;;;31.18;37.07;94028.11;808996;72;26954;-86
2021/06/21 14:50:34;;;;;;;4.80;4.50;;;;;;;31.21;37.06;94029.21;798391;74;27054;-84
2021/06/21 14:51:39;;;;;;;4.40;4.20;;;;;;;31.23;37.11;94029.54;798947;73;27357;-85
2021/06/21 14:52:50;;;;;;;4.77;4.47;;;;;;;31.26;37.19;94025.95;808920;73;26965;-85
2021/06/21 14:53:55;;;;;;;4.70;4.40;;;;;;;31.28;37.20;94025.67;808981;72;27023;-83
2021/06/21 14:54:59;;;;;;;4.70;4.30;;;;;;;31.30;37.27;94033.38;802999;73;26972;-85
2021/06/21 14:56:04;;;;;;;4.50;4.20;;;;;;;31.31;37.32;94028.14;794373;74;26961;-85
2021/06/21 14:57:10;;;;;;;4.13;3.80;;;;;;;31.34;37.24;94029.97;794802;74;27471;-85
2021/06/21 14:58:14;;;;;;;4.53;4.23;;;;;;;31.34;37.20;94023.94;804866;73;27000;-84
2021/06/21 14:59:19;;;;;;;4.43;4.03;;;;;;;31.36;37.05;94023.52;808878;73;27433;-85
2021/06/21 15:00:31;;;;;;;4.23;4.03;;;;;;;31.38;37.12;94023.09;808673;73;26970;-85
2021/06/21 15:16:57;;;;;;;;;;;;;;;;;;;;;
2021/06/21 15:31:27;;;;;;;5.40;5.00;;;;;;;29.86;39.89;94004.70;834049;71;32723;-83
2021/06/21 15:46:57;;;;;;;;;;;;;;;;;;;;;
2021/06/21 16:01:18;;;;;;;4.83;4.50;;;;;;;28.97;41.72;94018.23;828055;71;29620;-83
2021/06/21 16:16:30;;;;;;;4.97;4.57;;;;;;;28.59;43.61;94034.83;800606;74;31154;-84
2021/06/21 16:46:16;;;;;;;10.57;9.47;;;;;;;27.86;45.67;94023.72;829096;70;32135;-83
2021/06/21 17:01:17;;;;;;;8.07;7.37;;;;;;;27.73;46.63;94032.20;827080;71;31847;-77
2021/06/21 17:16:09;;;;;;;10.90;9.90;;;;;;;27.52;47.75;94033.30;826780;71;29590;-77
2021/06/21 17:31:14;;;;;;;16.43;14.83;;;;;;;27.27;50.97;94040.37;834010;71;30974;-80
2021/06/21 17:46:25;;;;;;;10.20;9.17;;;;;;;27.08;51.20;94049.25;821788;70;31518;-82
2021/06/21 18:16:19;;;;;;;12.90;11.60;;;;;;;26.52;51.44;94075.08;827712;71;31743;-83
2021/06/21 18:31:07;;;;;;;11.97;7.47;;;;;;;;;;828598;71;29056;-79
2021/06/21 18:46:13;;;;;;;13.13;11.93;;;;;;;;;;828198;71;31902;-79
2021/06/21 19:01:30;;;;;;;12.03;10.90;;;;;;;25.65;54.10;94070.22;817120;71;32199;-78
2021/06/21 19:16:09;;;;;;;11.70;10.50;;;;;;;25.33;54.42;94077.89;828418;71;28728;-83
2021/06/21 19:46:16;;;;;;;12.47;9.53;;;;;;;24.78;55.42;94107.44;827509;71;31707;-82
2021/06/21 20:01:08;;;;;;;10.47;9.57;;;;;;;24.52;56.26;94093.90;829001;71;28693;-83
2021/06/21 20:16:17;;;;;;;11.00;9.90;;;;;;;24.44;56.92;94099.06;828174;71;33062;-84
2021/06/21 20:31:17;;;;;;;11.53;10.30;;;;;;;24.22;57.53;94124.37;826019;71;32791;-84
2021/06/21 20:46:14;;;;;;;11.30;10.20;;;;;;;23.84;59.93;94118.61;832976;71;33155;-79
2021/06/21 21:16:08;;;;;;;10.90;9.10;;;;;;;23.66;59.82;94139.98;829574;71;29669;-80
2021/06/21 21:31:08;;;;;;;11.00;9.90;;;;;;;24.25;58.64;94142.36;829815;71;29811;-81
2021/06/21 21:46:11;;;;;;;9.80;8.80;;;;;;;24.50;58.38;94141.05;829429;71;32332;-81
2021/06/21 22:01:09;;;;;;;10.70;9.70;;;;;;;24.56;58.48;94151.00;828631;71;29708;-81
2021/06/21 22:16:10;;;;;;;10.03;9.23;;;;;;;24.62;57.90;94150.03;828895;71;30236;-81
2021/06/21 22:31:09;;;;;;;11.33;10.33;;;;;;;24.65;57.83;94160.56;829117;71;30268;-81
2021/06/21 22:46:08;;;;;;;13.70;11.13;;;;;;;24.61;58.73;94172.64;834310;71;29732;-81
2021/06/21 23:01:12;;;;;;;12.00;10.37;;;;;;;24.37;59.21;94119.17;828478;71;32046;-81
2021/06/21 23:16:14;;;;;;;11.03;10.10;;;;;;;24.59;59.44;94152.92;827624;71;32769;-81
2021/06/21 23:31:08;;;;;;;11.33;9.20;;;;;;;24.55;60.71;94149.48;834294;71;29724;-84
2021/06/21 23:46:10;;;;;;;10.17;9.20;;;;;;;24.57;60.59;94139.13;828403;71;30347;-83
